Mc Neil, Texas
Current Conditions -  °F | °C
As of 6:16 AM on Thursday 29 Jan 2015 (Local Time) from KATT Reporting Station
Broken Clouds Broken Clouds  
Wind Chill: 54°   Ceiling: 600
Heat Index: 54°   Visibility: 8mi
Dew Point: 53°   Wind: 3mph
Humidity: 97%   Direction: 210°SSW
Pressure: 30.16"   Gusts: NA
Location:  30.4554°N, 97.7167°W
Report Text: KATT 291216Z AUTO 21003KT 8SM BKN006 12/12 A3016 RMK AO2 T01220117
Loading
Personal Weather Stations






























Interactive Weather Map New forecast layout! Learn more

10-Day Weather Forecast

Advertisements
Track Severe Weather on mobile